sensor_id;sensor_type;location;lat;lon;timestamp;temperature;humidity
20574;DHT22;10445;50.216;7.912;2023-12-14T00:00:02;4.00;99.90
20574;DHT22;10445;50.216;7.912;2023-12-14T00:02:31;4.00;99.90
20574;DHT22;10445;50.216;7.912;2023-12-14T00:04:59;4.00;99.90
20574;DHT22;10445;50.216;7.912;2023-12-14T00:07:30;4.00;99.90
20574;DHT22;10445;50.216;7.912;2023-12-14T00:09:59;4.00;99.90
20574;DHT22;10445;50.216;7.912;2023-12-14T00:12:27;4.00;99.90
20574;DHT22;10445;50.216;7.912;2023-12-14T00:14:55;3.90;99.90
20574;DHT22;10445;50.216;7.912;2023-12-14T00:17:24;3.90;99.90
20574;DHT22;10445;50.216;7.912;2023-12-14T00:19:53;3.90;99.90
20574;DHT22;10445;50.216;7.912;2023-12-14T00:22:22;4.00;99.90
20574;DHT22;10445;50.216;7.912;2023-12-14T00:24:52;4.10;99.90
20574;DHT22;10445;50.216;7.912;2023-12-14T00:27:21;4.10;99.90
20574;DHT22;10445;50.216;7.912;2023-12-14T00:29:50;4.10;99.90
20574;DHT22;10445;50.216;7.912;2023-12-14T00:32:18;4.00;99.90
20574;DHT22;10445;50.216;7.912;2023-12-14T00:34:47;4.00;99.90
20574;DHT22;10445;50.216;7.912;2023-12-14T00:37:15;3.90;99.90
20574;DHT22;10445;50.216;7.912;2023-12-14T00:39:44;3.80;99.90
20574;DHT22;10445;50.216;7.912;2023-12-14T00:42:14;3.70;99.90
20574;DHT22;10445;50.216;7.912;2023-12-14T00:44:42;3.70;99.90
20574;DHT22;10445;50.216;7.912;2023-12-14T00:47:12;3.60;99.90
20574;DHT22;10445;50.216;7.912;2023-12-14T00:49:41;3.50;99.90
20574;DHT22;10445;50.216;7.912;2023-12-14T00:52:09;3.50;99.90
20574;DHT22;10445;50.216;7.912;2023-12-14T00:54:38;3.30;99.90
20574;DHT22;10445;50.216;7.912;2023-12-14T00:57:06;3.20;99.90
20574;DHT22;10445;50.216;7.912;2023-12-14T00:59:36;3.20;99.90
20574;DHT22;10445;50.216;7.912;2023-12-14T01:02:04;3.20;99.90
20574;DHT22;10445;50.216;7.912;2023-12-14T01:04:33;3.20;99.90
20574;DHT22;10445;50.216;7.912;2023-12-14T01:07:01;3.20;99.90
20574;DHT22;10445;50.216;7.912;2023-12-14T01:09:30;3.20;99.90
20574;DHT22;10445;50.216;7.912;2023-12-14T01:11:58;3.20;99.90
20574;DHT22;10445;50.216;7.912;2023-12-14T01:14:27;3.30;99.90
20574;DHT22;10445;50.216;7.912;2023-12-14T01:16:56;3.30;99.90
20574;DHT22;10445;50.216;7.912;2023-12-14T01:19:25;3.50;99.90
20574;DHT22;10445;50.216;7.912;2023-12-14T01:21:53;3.60;99.90
20574;DHT22;10445;50.216;7.912;2023-12-14T01:24:23;3.70;99.90
20574;DHT22;10445;50.216;7.912;2023-12-14T01:26:51;3.80;99.90
20574;DHT22;10445;50.216;7.912;2023-12-14T01:29:21;3.90;99.90
20574;DHT22;10445;50.216;7.912;2023-12-14T01:31:49;4.00;99.90
20574;DHT22;10445;50.216;7.912;2023-12-14T01:34:19;4.10;99.90
20574;DHT22;10445;50.216;7.912;2023-12-14T01:36:48;4.10;99.90
20574;DHT22;10445;50.216;7.912;2023-12-14T01:39:16;4.10;99.90
20574;DHT22;10445;50.216;7.912;2023-12-14T01:41:45;4.10;99.90
20574;DHT22;10445;50.216;7.912;2023-12-14T01:44:13;4.20;99.90
20574;DHT22;10445;50.216;7.912;2023-12-14T01:46:41;4.20;99.90
20574;DHT22;10445;50.216;7.912;2023-12-14T01:49:10;4.20;99.90
20574;DHT22;10445;50.216;7.912;2023-12-14T01:51:40;4.20;99.90
20574;DHT22;10445;50.216;7.912;2023-12-14T01:54:08;4.20;99.90
20574;DHT22;10445;50.216;7.912;2023-12-14T01:56:40;4.20;99.90
20574;DHT22;10445;50.216;7.912;2023-12-14T01:59:08;4.30;99.90
20574;DHT22;10445;50.216;7.912;2023-12-14T02:01:41;4.30;99.90
20574;DHT22;10445;50.216;7.912;2023-12-14T02:04:11;4.20;99.90
20574;DHT22;10445;50.216;7.912;2023-12-14T02:06:41;4.20;99.90
20574;DHT22;10445;50.216;7.912;2023-12-14T02:09:09;4.20;99.90
20574;DHT22;10445;50.216;7.912;2023-12-14T02:11:37;4.20;99.90
20574;DHT22;10445;50.216;7.912;2023-12-14T02:14:06;4.20;99.90
20574;DHT22;10445;50.216;7.912;2023-12-14T02:16:36;4.20;99.90
20574;DHT22;10445;50.216;7.912;2023-12-14T02:19:06;4.30;99.90
20574;DHT22;10445;50.216;7.912;2023-12-14T02:21:34;4.30;99.90
20574;DHT22;10445;50.216;7.912;2023-12-14T02:24:05;4.20;99.90
20574;DHT22;10445;50.216;7.912;2023-12-14T02:26:33;4.30;99.90
20574;DHT22;10445;50.216;7.912;2023-12-14T02:29:02;4.30;99.90
20574;DHT22;10445;50.216;7.912;2023-12-14T02:31:30;4.30;99.90
20574;DHT22;10445;50.216;7.912;2023-12-14T02:33:59;4.30;99.90
20574;DHT22;10445;50.216;7.912;2023-12-14T02:36:27;4.30;99.90
20574;DHT22;10445;50.216;7.912;2023-12-14T02:38:56;4.40;99.90
20574;DHT22;10445;50.216;7.912;2023-12-14T02:41:26;4.50;99.90
20574;DHT22;10445;50.216;7.912;2023-12-14T02:43:54;4.50;99.90
20574;DHT22;10445;50.216;7.912;2023-12-14T02:46:23;4.60;99.90
20574;DHT22;10445;50.216;7.912;2023-12-14T02:48:51;4.60;99.90
20574;DHT22;10445;50.216;7.912;2023-12-14T02:51:20;4.70;99.90
20574;DHT22;10445;50.216;7.912;2023-12-14T02:53:49;4.70;99.90
20574;DHT22;10445;50.216;7.912;2023-12-14T02:56:17;4.80;99.90
20574;DHT22;10445;50.216;7.912;2023-12-14T02:58:47;4.80;99.90
20574;DHT22;10445;50.216;7.912;2023-12-14T03:01:21;4.80;99.90
20574;DHT22;10445;50.216;7.912;2023-12-14T03:03:49;4.90;99.90
20574;DHT22;10445;50.216;7.912;2023-12-14T03:06:18;4.80;99.90
20574;DHT22;10445;50.216;7.912;2023-12-14T03:08:46;4.80;99.90
20574;DHT22;10445;50.216;7.912;2023-12-14T03:11:21;4.90;99.90
20574;DHT22;10445;50.216;7.912;2023-12-14T03:13:52;4.90;99.90
20574;DHT22;10445;50.216;7.912;2023-12-14T03:16:21;4.80;99.90
20574;DHT22;10445;50.216;7.912;2023-12-14T03:18:49;4.90;99.90
20574;DHT22;10445;50.216;7.912;2023-12-14T03:21:20;4.90;99.90
20574;DHT22;10445;50.216;7.912;2023-12-14T03:23:48;4.90;99.90
20574;DHT22;10445;50.216;7.912;2023-12-14T03:26:17;4.90;99.90
20574;DHT22;10445;50.216;7.912;2023-12-14T03:28:47;4.90;99.90
20574;DHT22;10445;50.216;7.912;2023-12-14T03:31:17;4.90;99.90
20574;DHT22;10445;50.216;7.912;2023-12-14T03:33:45;5.00;99.90
20574;DHT22;10445;50.216;7.912;2023-12-14T03:36:14;4.90;99.90
20574;DHT22;10445;50.216;7.912;2023-12-14T03:38:42;4.90;99.90
20574;DHT22;10445;50.216;7.912;2023-12-14T03:41:11;4.90;99.90
20574;DHT22;10445;50.216;7.912;2023-12-14T03:43:40;5.00;99.90
20574;DHT22;10445;50.216;7.912;2023-12-14T03:46:08;5.00;99.90
20574;DHT22;10445;50.216;7.912;2023-12-14T03:48:38;5.00;99.90
20574;DHT22;10445;50.216;7.912;2023-12-14T03:51:07;4.90;99.90
20574;DHT22;10445;50.216;7.912;2023-12-14T03:53:35;4.90;99.90
20574;DHT22;10445;50.216;7.912;2023-12-14T03:56:04;5.00;99.90
20574;DHT22;10445;50.216;7.912;2023-12-14T03:58:32;4.90;99.90
20574;DHT22;10445;50.216;7.912;2023-12-14T04:01:01;5.00;99.90
20574;DHT22;10445;50.216;7.912;2023-12-14T04:03:29;5.00;99.90
20574;DHT22;10445;50.216;7.912;2023-12-14T04:05:59;5.00;99.90
20574;DHT22;10445;50.216;7.912;2023-12-14T04:08:28;5.10;99.90
20574;DHT22;10445;50.216;7.912;2023-12-14T04:10:56;5.10;99.90
20574;DHT22;10445;50.216;7.912;2023-12-14T04:13:24;5.10;99.90
20574;DHT22;10445;50.216;7.912;2023-12-14T04:15:53;5.10;99.90
20574;DHT22;10445;50.216;7.912;2023-12-14T04:18:21;5.10;99.90
20574;DHT22;10445;50.216;7.912;2023-12-14T04:20:50;5.10;99.90
20574;DHT22;10445;50.216;7.912;2023-12-14T04:23:20;5.10;99.90
20574;DHT22;10445;50.216;7.912;2023-12-14T04:25:48;5.20;99.90
20574;DHT22;10445;50.216;7.912;2023-12-14T04:28:17;5.20;99.90
20574;DHT22;10445;50.216;7.912;2023-12-14T04:30:45;5.10;99.90
20574;DHT22;10445;50.216;7.912;2023-12-14T04:33:14;5.10;99.90
20574;DHT22;10445;50.216;7.912;2023-12-14T04:35:42;5.10;99.90
20574;DHT22;10445;50.216;7.912;2023-12-14T04:38:11;5.20;99.90
20574;DHT22;10445;50.216;7.912;2023-12-14T04:40:41;5.20;99.90
20574;DHT22;10445;50.216;7.912;2023-12-14T04:43:09;5.20;99.90
20574;DHT22;10445;50.216;7.912;2023-12-14T04:45:38;5.20;99.90
20574;DHT22;10445;50.216;7.912;2023-12-14T04:48:06;5.20;99.90
20574;DHT22;10445;50.216;7.912;2023-12-14T04:50:35;5.20;99.90
20574;DHT22;10445;50.216;7.912;2023-12-14T04:53:03;5.20;99.90
20574;DHT22;10445;50.216;7.912;2023-12-14T04:55:32;5.20;99.90
20574;DHT22;10445;50.216;7.912;2023-12-14T04:58:03;5.20;99.90
20574;DHT22;10445;50.216;7.912;2023-12-14T05:00:32;5.20;99.90
20574;DHT22;10445;50.216;7.912;2023-12-14T05:03:01;5.30;99.90
20574;DHT22;10445;50.216;7.912;2023-12-14T05:05:29;5.30;99.90
20574;DHT22;10445;50.216;7.912;2023-12-14T05:07:58;5.20;99.90
20574;DHT22;10445;50.216;7.912;2023-12-14T05:10:26;5.30;99.90
20574;DHT22;10445;50.216;7.912;2023-12-14T05:12:55;5.20;99.90
20574;DHT22;10445;50.216;7.912;2023-12-14T05:15:39;5.30;99.90
20574;DHT22;10445;50.216;7.912;2023-12-14T05:18:08;5.30;99.90
20574;DHT22;10445;50.216;7.912;2023-12-14T05:20:36;5.20;99.90
20574;DHT22;10445;50.216;7.912;2023-12-14T05:23:05;5.30;99.90
20574;DHT22;10445;50.216;7.912;2023-12-14T05:25:34;5.20;99.90
20574;DHT22;10445;50.216;7.912;2023-12-14T05:28:03;5.10;99.90
20574;DHT22;10445;50.216;7.912;2023-12-14T05:30:31;5.20;99.90
20574;DHT22;10445;50.216;7.912;2023-12-14T05:33:03;5.20;99.90
20574;DHT22;10445;50.216;7.912;2023-12-14T05:35:31;5.30;99.90
20574;DHT22;10445;50.216;7.912;2023-12-14T05:38:00;5.20;99.90
20574;DHT22;10445;50.216;7.912;2023-12-14T05:40:29;5.20;99.90
20574;DHT22;10445;50.216;7.912;2023-12-14T05:42:58;5.20;99.90
20574;DHT22;10445;50.216;7.912;2023-12-14T05:45:27;5.20;99.90
20574;DHT22;10445;50.216;7.912;2023-12-14T05:47:55;5.20;99.90
20574;DHT22;10445;50.216;7.912;2023-12-14T05:50:25;5.20;99.90
20574;DHT22;10445;50.216;7.912;2023-12-14T05:52:54;5.20;99.90
20574;DHT22;10445;50.216;7.912;2023-12-14T05:55:25;5.20;99.90
20574;DHT22;10445;50.216;7.912;2023-12-14T05:57:53;5.10;99.90
20574;DHT22;10445;50.216;7.912;2023-12-14T06:00:23;5.10;99.90
20574;DHT22;10445;50.216;7.912;2023-12-14T06:02:51;5.10;99.90
20574;DHT22;10445;50.216;7.912;2023-12-14T06:05:20;5.20;99.90
20574;DHT22;10445;50.216;7.912;2023-12-14T06:07:50;5.20;99.90
20574;DHT22;10445;50.216;7.912;2023-12-14T06:10:19;5.20;99.90
20574;DHT22;10445;50.216;7.912;2023-12-14T06:12:48;5.20;99.90
20574;DHT22;10445;50.216;7.912;2023-12-14T06:15:17;5.20;99.90
20574;DHT22;10445;50.216;7.912;2023-12-14T06:17:45;5.20;99.90
20574;DHT22;10445;50.216;7.912;2023-12-14T06:20:14;5.30;99.90
20574;DHT22;10445;50.216;7.912;2023-12-14T06:22:42;5.30;99.90
20574;DHT22;10445;50.216;7.912;2023-12-14T06:25:12;5.30;99.90
20574;DHT22;10445;50.216;7.912;2023-12-14T06:27:42;5.30;99.90
20574;DHT22;10445;50.216;7.912;2023-12-14T06:30:12;5.30;99.90
20574;DHT22;10445;50.216;7.912;2023-12-14T06:32:41;5.30;99.90
20574;DHT22;10445;50.216;7.912;2023-12-14T06:35:09;5.30;99.90
20574;DHT22;10445;50.216;7.912;2023-12-14T06:37:37;5.20;99.90
20574;DHT22;10445;50.216;7.912;2023-12-14T06:40:08;5.30;99.90
20574;DHT22;10445;50.216;7.912;2023-12-14T06:42:39;5.20;99.90
20574;DHT22;10445;50.216;7.912;2023-12-14T06:45:09;5.30;99.90
20574;DHT22;10445;50.216;7.912;2023-12-14T06:47:38;5.30;99.90
20574;DHT22;10445;50.216;7.912;2023-12-14T06:50:10;5.30;99.90
20574;DHT22;10445;50.216;7.912;2023-12-14T06:52:39;5.30;99.90
20574;DHT22;10445;50.216;7.912;2023-12-14T06:55:08;5.30;99.90
20574;DHT22;10445;50.216;7.912;2023-12-14T06:57:39;5.30;99.90
20574;DHT22;10445;50.216;7.912;2023-12-14T07:00:08;5.30;99.90
20574;DHT22;10445;50.216;7.912;2023-12-14T07:02:37;5.30;99.90
20574;DHT22;10445;50.216;7.912;2023-12-14T07:05:05;5.30;99.90
20574;DHT22;10445;50.216;7.912;2023-12-14T07:07:34;5.30;99.90
20574;DHT22;10445;50.216;7.912;2023-12-14T07:10:04;5.20;99.90
20574;DHT22;10445;50.216;7.912;2023-12-14T07:12:32;5.20;99.90
20574;DHT22;10445;50.216;7.912;2023-12-14T07:15:03;5.30;99.90
20574;DHT22;10445;50.216;7.912;2023-12-14T07:17:32;5.30;99.90
20574;DHT22;10445;50.216;7.912;2023-12-14T07:20:00;5.30;99.90
20574;DHT22;10445;50.216;7.912;2023-12-14T07:22:29;5.20;99.90
20574;DHT22;10445;50.216;7.912;2023-12-14T07:24:57;5.20;99.90
20574;DHT22;10445;50.216;7.912;2023-12-14T07:27:26;5.20;99.90
20574;DHT22;10445;50.216;7.912;2023-12-14T07:29:55;5.20;99.90
20574;DHT22;10445;50.216;7.912;2023-12-14T07:32:25;5.20;99.90
20574;DHT22;10445;50.216;7.912;2023-12-14T07:34:54;5.20;99.90
20574;DHT22;10445;50.216;7.912;2023-12-14T07:37:22;5.20;99.90
20574;DHT22;10445;50.216;7.912;2023-12-14T07:39:50;5.20;99.90
20574;DHT22;10445;50.216;7.912;2023-12-14T07:42:19;5.20;99.90
20574;DHT22;10445;50.216;7.912;2023-12-14T07:44:47;5.20;99.90
20574;DHT22;10445;50.216;7.912;2023-12-14T07:47:17;5.20;99.90
20574;DHT22;10445;50.216;7.912;2023-12-14T07:49:48;5.20;99.90
20574;DHT22;10445;50.216;7.912;2023-12-14T07:52:16;5.20;99.90
20574;DHT22;10445;50.216;7.912;2023-12-14T07:54:44;5.20;99.90
20574;DHT22;10445;50.216;7.912;2023-12-14T07:57:13;5.20;99.90
20574;DHT22;10445;50.216;7.912;2023-12-14T07:59:41;5.30;99.90
20574;DHT22;10445;50.216;7.912;2023-12-14T08:02:10;5.30;99.90
20574;DHT22;10445;50.216;7.912;2023-12-14T08:04:39;5.30;99.90
20574;DHT22;10445;50.216;7.912;2023-12-14T08:07:09;5.30;99.90
20574;DHT22;10445;50.216;7.912;2023-12-14T08:09:37;5.30;99.90
20574;DHT22;10445;50.216;7.912;2023-12-14T08:12:06;5.30;99.90
20574;DHT22;10445;50.216;7.912;2023-12-14T08:14:35;5.40;99.90
20574;DHT22;10445;50.216;7.912;2023-12-14T08:17:04;5.40;99.90
20574;DHT22;10445;50.216;7.912;2023-12-14T08:19:33;5.30;99.90
20574;DHT22;10445;50.216;7.912;2023-12-14T08:22:02;5.40;99.90
20574;DHT22;10445;50.216;7.912;2023-12-14T08:24:32;5.30;99.90
20574;DHT22;10445;50.216;7.912;2023-12-14T08:27:00;5.30;99.90
20574;DHT22;10445;50.216;7.912;2023-12-14T08:29:29;5.30;99.90
20574;DHT22;10445;50.216;7.912;2023-12-14T08:31:57;5.30;99.90
20574;DHT22;10445;50.216;7.912;2023-12-14T08:34:27;5.30;99.90
20574;DHT22;10445;50.216;7.912;2023-12-14T08:36:55;5.30;99.90
20574;DHT22;10445;50.216;7.912;2023-12-14T08:39:23;5.40;99.90
20574;DHT22;10445;50.216;7.912;2023-12-14T08:41:55;5.40;99.90
20574;DHT22;10445;50.216;7.912;2023-12-14T08:44:23;5.40;99.90
20574;DHT22;10445;50.216;7.912;2023-12-14T08:46:52;5.30;99.90
20574;DHT22;10445;50.216;7.912;2023-12-14T08:49:20;5.30;99.90
20574;DHT22;10445;50.216;7.912;2023-12-14T08:51:51;5.30;99.90
20574;DHT22;10445;50.216;7.912;2023-12-14T08:54:19;5.30;99.90
20574;DHT22;10445;50.216;7.912;2023-12-14T08:56:47;5.20;99.90
20574;DHT22;10445;50.216;7.912;2023-12-14T08:59:18;5.20;99.90
20574;DHT22;10445;50.216;7.912;2023-12-14T09:01:47;5.20;99.90
20574;DHT22;10445;50.216;7.912;2023-12-14T09:04:16;5.20;99.90
20574;DHT22;10445;50.216;7.912;2023-12-14T09:06:44;5.20;99.90
20574;DHT22;10445;50.216;7.912;2023-12-14T09:09:13;5.20;99.90
20574;DHT22;10445;50.216;7.912;2023-12-14T09:11:41;5.10;99.90
20574;DHT22;10445;50.216;7.912;2023-12-14T09:14:10;5.10;99.90
20574;DHT22;10445;50.216;7.912;2023-12-14T09:16:40;5.10;99.90
20574;DHT22;10445;50.216;7.912;2023-12-14T09:19:08;5.10;99.90
20574;DHT22;10445;50.216;7.912;2023-12-14T09:21:37;5.20;99.90
20574;DHT22;10445;50.216;7.912;2023-12-14T09:24:12;5.10;99.90
20574;DHT22;10445;50.216;7.912;2023-12-14T09:26:41;5.10;99.90
20574;DHT22;10445;50.216;7.912;2023-12-14T09:29:09;5.10;99.90
20574;DHT22;10445;50.216;7.912;2023-12-14T09:31:42;5.10;99.90
20574;DHT22;10445;50.216;7.912;2023-12-14T09:34:11;5.10;99.90
20574;DHT22;10445;50.216;7.912;2023-12-14T09:36:40;5.10;99.90
20574;DHT22;10445;50.216;7.912;2023-12-14T09:39:09;5.10;99.90
20574;DHT22;10445;50.216;7.912;2023-12-14T09:41:39;5.10;99.90
20574;DHT22;10445;50.216;7.912;2023-12-14T09:44:07;5.10;99.90
20574;DHT22;10445;50.216;7.912;2023-12-14T09:46:37;5.00;99.90
20574;DHT22;10445;50.216;7.912;2023-12-14T09:49:08;5.00;99.90
20574;DHT22;10445;50.216;7.912;2023-12-14T09:51:37;5.00;99.90
20574;DHT22;10445;50.216;7.912;2023-12-14T09:54:07;5.00;99.90
20574;DHT22;10445;50.216;7.912;2023-12-14T09:56:45;5.00;99.90
20574;DHT22;10445;50.216;7.912;2023-12-14T09:59:14;4.90;99.90
20574;DHT22;10445;50.216;7.912;2023-12-14T10:01:42;5.00;99.90
20574;DHT22;10445;50.216;7.912;2023-12-14T10:04:15;5.00;99.90
20574;DHT22;10445;50.216;7.912;2023-12-14T10:06:45;5.10;99.90
20574;DHT22;10445;50.216;7.912;2023-12-14T10:09:14;5.00;99.90
20574;DHT22;10445;50.216;7.912;2023-12-14T10:11:43;5.10;99.90
20574;DHT22;10445;50.216;7.912;2023-12-14T10:14:19;5.10;99.90
20574;DHT22;10445;50.216;7.912;2023-12-14T10:16:50;5.10;99.90
20574;DHT22;10445;50.216;7.912;2023-12-14T10:19:23;5.10;99.90
20574;DHT22;10445;50.216;7.912;2023-12-14T10:21:52;5.00;99.90
20574;DHT22;10445;50.216;7.912;2023-12-14T10:24:20;5.00;99.90
20574;DHT22;10445;50.216;7.912;2023-12-14T10:26:50;5.00;99.90
20574;DHT22;10445;50.216;7.912;2023-12-14T10:29:19;4.90;99.90
20574;DHT22;10445;50.216;7.912;2023-12-14T10:31:49;5.00;99.90
20574;DHT22;10445;50.216;7.912;2023-12-14T10:34:17;5.00;99.90
20574;DHT22;10445;50.216;7.912;2023-12-14T10:36:47;4.90;99.90
20574;DHT22;10445;50.216;7.912;2023-12-14T10:39:17;4.90;99.90
20574;DHT22;10445;50.216;7.912;2023-12-14T10:41:47;4.90;99.90
20574;DHT22;10445;50.216;7.912;2023-12-14T10:44:27;4.90;99.90
20574;DHT22;10445;50.216;7.912;2023-12-14T10:47:16;5.00;99.90
20574;DHT22;10445;50.216;7.912;2023-12-14T10:49:48;4.90;99.90
20574;DHT22;10445;50.216;7.912;2023-12-14T10:52:21;4.90;99.90
20574;DHT22;10445;50.216;7.912;2023-12-14T10:54:53;5.00;99.90
20574;DHT22;10445;50.216;7.912;2023-12-14T10:57:26;4.90;99.90
20574;DHT22;10445;50.216;7.912;2023-12-14T10:59:58;4.90;99.90
20574;DHT22;10445;50.216;7.912;2023-12-14T11:02:27;4.90;99.90
20574;DHT22;10445;50.216;7.912;2023-12-14T11:04:57;5.00;99.90
20574;DHT22;10445;50.216;7.912;2023-12-14T11:07:51;4.90;99.90
20574;DHT22;10445;50.216;7.912;2023-12-14T11:10:24;4.90;99.90
20574;DHT22;10445;50.216;7.912;2023-12-14T11:13:00;4.80;99.90
20574;DHT22;10445;50.216;7.912;2023-12-14T11:15:30;4.80;99.90
20574;DHT22;10445;50.216;7.912;2023-12-14T11:18:20;4.80;99.90
20574;DHT22;10445;50.216;7.912;2023-12-14T11:20:51;4.80;99.90
20574;DHT22;10445;50.216;7.912;2023-12-14T11:23:32;4.80;99.90
20574;DHT22;10445;50.216;7.912;2023-12-14T11:26:03;4.80;99.90
20574;DHT22;10445;50.216;7.912;2023-12-14T11:28:34;4.80;99.90
20574;DHT22;10445;50.216;7.912;2023-12-14T11:31:03;4.70;99.90
20574;DHT22;10445;50.216;7.912;2023-12-14T11:33:34;4.70;99.90
20574;DHT22;10445;50.216;7.912;2023-12-14T11:36:10;4.70;99.90
20574;DHT22;10445;50.216;7.912;2023-12-14T11:38:40;4.80;99.90
20574;DHT22;10445;50.216;7.912;2023-12-14T11:41:09;4.80;99.90
20574;DHT22;10445;50.216;7.912;2023-12-14T11:43:41;4.80;99.90
20574;DHT22;10445;50.216;7.912;2023-12-14T11:46:11;4.90;99.90
20574;DHT22;10445;50.216;7.912;2023-12-14T11:48:43;4.80;99.90
20574;DHT22;10445;50.216;7.912;2023-12-14T11:51:12;4.80;99.90
20574;DHT22;10445;50.216;7.912;2023-12-14T11:53:43;4.70;99.90
20574;DHT22;10445;50.216;7.912;2023-12-14T11:56:13;4.70;99.90
20574;DHT22;10445;50.216;7.912;2023-12-14T11:58:44;4.70;99.90
20574;DHT22;10445;50.216;7.912;2023-12-14T12:01:14;4.70;99.90
20574;DHT22;10445;50.216;7.912;2023-12-14T12:03:44;4.70;99.90
20574;DHT22;10445;50.216;7.912;2023-12-14T12:06:30;4.70;99.90
20574;DHT22;10445;50.216;7.912;2023-12-14T12:09:00;4.80;99.90
20574;DHT22;10445;50.216;7.912;2023-12-14T12:11:36;4.70;99.90
20574;DHT22;10445;50.216;7.912;2023-12-14T12:14:05;4.70;99.90
20574;DHT22;10445;50.216;7.912;2023-12-14T12:16:33;4.70;99.90
20574;DHT22;10445;50.216;7.912;2023-12-14T12:19:02;4.60;99.90
20574;DHT22;10445;50.216;7.912;2023-12-14T12:21:31;4.60;99.90
20574;DHT22;10445;50.216;7.912;2023-12-14T12:24:00;4.60;99.90
20574;DHT22;10445;50.216;7.912;2023-12-14T12:26:51;4.60;99.90
20574;DHT22;10445;50.216;7.912;2023-12-14T12:29:20;4.60;99.90
20574;DHT22;10445;50.216;7.912;2023-12-14T12:31:49;4.60;99.90
20574;DHT22;10445;50.216;7.912;2023-12-14T12:34:27;4.70;99.90
20574;DHT22;10445;50.216;7.912;2023-12-14T12:36:56;4.70;99.90
20574;DHT22;10445;50.216;7.912;2023-12-14T12:39:26;4.70;99.90
20574;DHT22;10445;50.216;7.912;2023-12-14T12:41:55;4.70;99.90
20574;DHT22;10445;50.216;7.912;2023-12-14T12:44:23;4.70;99.90
20574;DHT22;10445;50.216;7.912;2023-12-14T12:46:52;4.70;99.90
20574;DHT22;10445;50.216;7.912;2023-12-14T12:49:36;4.70;99.90
20574;DHT22;10445;50.216;7.912;2023-12-14T12:52:05;4.70;99.90
20574;DHT22;10445;50.216;7.912;2023-12-14T12:54:35;4.70;99.90
20574;DHT22;10445;50.216;7.912;2023-12-14T12:57:04;4.60;99.90
20574;DHT22;10445;50.216;7.912;2023-12-14T12:59:33;4.70;99.90
20574;DHT22;10445;50.216;7.912;2023-12-14T13:02:01;4.80;99.90
20574;DHT22;10445;50.216;7.912;2023-12-14T13:04:31;4.80;99.90
20574;DHT22;10445;50.216;7.912;2023-12-14T13:07:00;4.80;99.90
20574;DHT22;10445;50.216;7.912;2023-12-14T13:09:31;4.70;99.90
20574;DHT22;10445;50.216;7.912;2023-12-14T13:12:01;4.60;99.90
20574;DHT22;10445;50.216;7.912;2023-12-14T13:14:29;4.60;99.90
20574;DHT22;10445;50.216;7.912;2023-12-14T13:16:58;4.60;99.90
20574;DHT22;10445;50.216;7.912;2023-12-14T13:19:28;4.60;99.90
20574;DHT22;10445;50.216;7.912;2023-12-14T13:22:02;4.60;99.90
20574;DHT22;10445;50.216;7.912;2023-12-14T13:24:35;4.70;99.90
20574;DHT22;10445;50.216;7.912;2023-12-14T13:27:05;4.60;99.90
20574;DHT22;10445;50.216;7.912;2023-12-14T13:29:34;4.50;99.90
20574;DHT22;10445;50.216;7.912;2023-12-14T13:32:06;4.40;99.90
20574;DHT22;10445;50.216;7.912;2023-12-14T13:34:34;4.40;99.90
20574;DHT22;10445;50.216;7.912;2023-12-14T13:37:03;4.40;99.90
20574;DHT22;10445;50.216;7.912;2023-12-14T13:39:32;4.30;99.90
20574;DHT22;10445;50.216;7.912;2023-12-14T13:42:06;4.30;99.90
20574;DHT22;10445;50.216;7.912;2023-12-14T13:44:34;4.40;99.90
20574;DHT22;10445;50.216;7.912;2023-12-14T13:47:03;4.30;99.90
20574;DHT22;10445;50.216;7.912;2023-12-14T13:49:33;4.40;99.90
20574;DHT22;10445;50.216;7.912;2023-12-14T13:52:02;4.40;99.90
20574;DHT22;10445;50.216;7.912;2023-12-14T13:54:30;4.40;99.90
20574;DHT22;10445;50.216;7.912;2023-12-14T13:56:59;4.40;99.90
20574;DHT22;10445;50.216;7.912;2023-12-14T13:59:29;4.40;99.90
20574;DHT22;10445;50.216;7.912;2023-12-14T14:01:57;4.40;99.90
20574;DHT22;10445;50.216;7.912;2023-12-14T14:04:26;4.40;99.90
20574;DHT22;10445;50.216;7.912;2023-12-14T14:06:55;4.30;99.90
20574;DHT22;10445;50.216;7.912;2023-12-14T14:09:24;4.30;99.90
20574;DHT22;10445;50.216;7.912;2023-12-14T14:11:52;4.30;99.90
20574;DHT22;10445;50.216;7.912;2023-12-14T14:14:24;4.30;99.90
20574;DHT22;10445;50.216;7.912;2023-12-14T14:16:54;4.30;99.90
20574;DHT22;10445;50.216;7.912;2023-12-14T14:19:22;4.30;99.90
20574;DHT22;10445;50.216;7.912;2023-12-14T14:21:50;4.30;99.90
20574;DHT22;10445;50.216;7.912;2023-12-14T14:24:19;4.30;99.90
20574;DHT22;10445;50.216;7.912;2023-12-14T14:26:47;4.20;99.90
20574;DHT22;10445;50.216;7.912;2023-12-14T14:29:16;4.20;99.90
20574;DHT22;10445;50.216;7.912;2023-12-14T14:31:45;4.20;99.90
20574;DHT22;10445;50.216;7.912;2023-12-14T14:34:15;4.20;99.90
20574;DHT22;10445;50.216;7.912;2023-12-14T14:36:44;4.20;99.90
20574;DHT22;10445;50.216;7.912;2023-12-14T14:39:12;4.20;99.90
20574;DHT22;10445;50.216;7.912;2023-12-14T14:41:44;4.10;99.90
20574;DHT22;10445;50.216;7.912;2023-12-14T14:44:13;4.00;99.90
20574;DHT22;10445;50.216;7.912;2023-12-14T14:46:41;4.00;99.90
20574;DHT22;10445;50.216;7.912;2023-12-14T14:49:11;4.00;99.90
20574;DHT22;10445;50.216;7.912;2023-12-14T14:51:41;3.90;99.90
20574;DHT22;10445;50.216;7.912;2023-12-14T14:54:09;3.90;99.90
20574;DHT22;10445;50.216;7.912;2023-12-14T14:56:39;4.00;99.90
20574;DHT22;10445;50.216;7.912;2023-12-14T14:59:08;3.90;99.90
20574;DHT22;10445;50.216;7.912;2023-12-14T15:01:38;3.90;99.90
20574;DHT22;10445;50.216;7.912;2023-12-14T15:04:06;3.90;99.90
20574;DHT22;10445;50.216;7.912;2023-12-14T15:06:35;3.90;99.90
20574;DHT22;10445;50.216;7.912;2023-12-14T15:09:05;3.90;99.90
20574;DHT22;10445;50.216;7.912;2023-12-14T15:11:36;3.80;99.90
20574;DHT22;10445;50.216;7.912;2023-12-14T15:14:04;3.80;99.90
20574;DHT22;10445;50.216;7.912;2023-12-14T15:16:33;3.80;99.90
20574;DHT22;10445;50.216;7.912;2023-12-14T15:19:02;3.80;99.90
20574;DHT22;10445;50.216;7.912;2023-12-14T15:21:31;3.70;99.90
20574;DHT22;10445;50.216;7.912;2023-12-14T15:23:59;3.70;99.90
20574;DHT22;10445;50.216;7.912;2023-12-14T15:26:30;3.70;99.90
20574;DHT22;10445;50.216;7.912;2023-12-14T15:28:59;3.70;99.90
20574;DHT22;10445;50.216;7.912;2023-12-14T15:31:28;3.70;99.90
20574;DHT22;10445;50.216;7.912;2023-12-14T15:33:56;3.60;99.90
20574;DHT22;10445;50.216;7.912;2023-12-14T15:36:25;3.60;99.90
20574;DHT22;10445;50.216;7.912;2023-12-14T15:38:58;3.60;99.90
20574;DHT22;10445;50.216;7.912;2023-12-14T15:41:31;3.70;99.90
20574;DHT22;10445;50.216;7.912;2023-12-14T15:44:00;3.60;99.90
20574;DHT22;10445;50.216;7.912;2023-12-14T15:46:28;3.60;99.90
20574;DHT22;10445;50.216;7.912;2023-12-14T15:48:58;3.60;99.90
20574;DHT22;10445;50.216;7.912;2023-12-14T15:51:26;3.70;99.90
20574;DHT22;10445;50.216;7.912;2023-12-14T15:53:55;3.70;99.90
20574;DHT22;10445;50.216;7.912;2023-12-14T15:56:24;3.70;99.90
20574;DHT22;10445;50.216;7.912;2023-12-14T15:58:59;3.60;99.90